sensor_id;sensor_type;location;lat;lon;timestamp;P1;durP1;ratioP1;P2;durP2;ratioP2
18082;SDS011;9168;51.194;6.840;2023-05-02T00:02:02;35.17;;;23.73;;
18082;SDS011;9168;51.194;6.840;2023-05-02T00:04:29;35.33;;;24.40;;
18082;SDS011;9168;51.194;6.840;2023-05-02T00:06:56;32.88;;;22.95;;
18082;SDS011;9168;51.194;6.840;2023-05-02T00:09:23;33.10;;;23.58;;
18082;SDS011;9168;51.194;6.840;2023-05-02T00:11:50;34.63;;;24.65;;
18082;SDS011;9168;51.194;6.840;2023-05-02T00:14:17;41.78;;;25.98;;
18082;SDS011;9168;51.194;6.840;2023-05-02T00:16:45;38.40;;;23.42;;
18082;SDS011;9168;51.194;6.840;2023-05-02T00:19:12;38.78;;;25.02;;
18082;SDS011;9168;51.194;6.840;2023-05-02T00:21:39;39.55;;;27.50;;
18082;SDS011;9168;51.194;6.840;2023-05-02T00:24:06;41.72;;;26.45;;
18082;SDS011;9168;51.194;6.840;2023-05-02T00:26:32;42.90;;;28.15;;
18082;SDS011;9168;51.194;6.840;2023-05-02T00:28:59;44.50;;;28.38;;
18082;SDS011;9168;51.194;6.840;2023-05-02T00:31:26;52.08;;;30.75;;
18082;SDS011;9168;51.194;6.840;2023-05-02T00:33:54;52.97;;;31.83;;
18082;SDS011;9168;51.194;6.840;2023-05-02T00:36:21;50.13;;;29.52;;
18082;SDS011;9168;51.194;6.840;2023-05-02T00:38:48;49.35;;;32.13;;
18082;SDS011;9168;51.194;6.840;2023-05-02T00:41:15;50.25;;;33.05;;
18082;SDS011;9168;51.194;6.840;2023-05-02T00:43:42;53.75;;;33.72;;
18082;SDS011;9168;51.194;6.840;2023-05-02T00:46:09;54.67;;;32.85;;
18082;SDS011;9168;51.194;6.840;2023-05-02T00:48:37;56.53;;;33.15;;
18082;SDS011;9168;51.194;6.840;2023-05-02T00:51:06;55.13;;;33.00;;
18082;SDS011;9168;51.194;6.840;2023-05-02T00:53:36;49.38;;;32.88;;
18082;SDS011;9168;51.194;6.840;2023-05-02T00:56:03;56.22;;;34.80;;
18082;SDS011;9168;51.194;6.840;2023-05-02T00:58:30;56.13;;;34.70;;
18082;SDS011;9168;51.194;6.840;2023-05-02T01:01:01;58.90;;;35.47;;
18082;SDS011;9168;51.194;6.840;2023-05-02T01:03:38;60.08;;;36.03;;
18082;SDS011;9168;51.194;6.840;2023-05-02T01:06:14;63.50;;;37.55;;
18082;SDS011;9168;51.194;6.840;2023-05-02T01:08:55;60.53;;;36.75;;
18082;SDS011;9168;51.194;6.840;2023-05-02T01:11:29;61.90;;;35.38;;
18082;SDS011;9168;51.194;6.840;2023-05-02T01:14:04;67.05;;;38.30;;
18082;SDS011;9168;51.194;6.840;2023-05-02T01:16:33;61.75;;;38.65;;
18082;SDS011;9168;51.194;6.840;2023-05-02T01:19:04;58.50;;;36.85;;
18082;SDS011;9168;51.194;6.840;2023-05-02T01:21:36;65.88;;;38.63;;
18082;SDS011;9168;51.194;6.840;2023-05-02T01:24:04;67.63;;;41.15;;
18082;SDS011;9168;51.194;6.840;2023-05-02T01:26:42;66.95;;;38.65;;
18082;SDS011;9168;51.194;6.840;2023-05-02T01:29:18;67.55;;;40.25;;
18082;SDS011;9168;51.194;6.840;2023-05-02T01:31:48;64.28;;;38.90;;
18082;SDS011;9168;51.194;6.840;2023-05-02T01:34:16;67.43;;;39.88;;
18082;SDS011;9168;51.194;6.840;2023-05-02T01:36:46;71.07;;;40.65;;
18082;SDS011;9168;51.194;6.840;2023-05-02T01:39:17;67.00;;;39.22;;
18082;SDS011;9168;51.194;6.840;2023-05-02T01:41:47;67.50;;;39.92;;
18082;SDS011;9168;51.194;6.840;2023-05-02T01:44:15;68.72;;;38.70;;
18082;SDS011;9168;51.194;6.840;2023-05-02T01:46:46;68.80;;;40.10;;
18082;SDS011;9168;51.194;6.840;2023-05-02T01:49:14;65.20;;;37.17;;
18082;SDS011;9168;51.194;6.840;2023-05-02T01:51:43;65.80;;;37.10;;
18082;SDS011;9168;51.194;6.840;2023-05-02T01:54:12;68.18;;;37.90;;
18082;SDS011;9168;51.194;6.840;2023-05-02T01:56:41;58.65;;;35.70;;
18082;SDS011;9168;51.194;6.840;2023-05-02T01:59:11;62.15;;;38.13;;
18082;SDS011;9168;51.194;6.840;2023-05-02T02:01:41;62.90;;;35.80;;
18082;SDS011;9168;51.194;6.840;2023-05-02T02:04:10;61.95;;;34.88;;
18082;SDS011;9168;51.194;6.840;2023-05-02T02:06:38;58.05;;;34.20;;
18082;SDS011;9168;51.194;6.840;2023-05-02T02:09:11;65.05;;;36.78;;
18082;SDS011;9168;51.194;6.840;2023-05-02T02:11:40;63.53;;;34.33;;
18082;SDS011;9168;51.194;6.840;2023-05-02T02:14:11;58.60;;;35.10;;
18082;SDS011;9168;51.194;6.840;2023-05-02T02:16:45;62.38;;;35.53;;
18082;SDS011;9168;51.194;6.840;2023-05-02T02:19:13;59.63;;;35.00;;
18082;SDS011;9168;51.194;6.840;2023-05-02T02:21:41;53.38;;;32.58;;
18082;SDS011;9168;51.194;6.840;2023-05-02T02:24:08;56.47;;;32.80;;
18082;SDS011;9168;51.194;6.840;2023-05-02T02:26:37;60.78;;;34.17;;
18082;SDS011;9168;51.194;6.840;2023-05-02T02:29:04;62.95;;;34.55;;
18082;SDS011;9168;51.194;6.840;2023-05-02T02:31:31;57.72;;;34.38;;
18082;SDS011;9168;51.194;6.840;2023-05-02T02:34:01;61.08;;;34.00;;
18082;SDS011;9168;51.194;6.840;2023-05-02T02:36:29;54.67;;;33.30;;
18082;SDS011;9168;51.194;6.840;2023-05-02T02:39:06;60.03;;;34.42;;
18082;SDS011;9168;51.194;6.840;2023-05-02T02:41:40;56.97;;;32.20;;
18082;SDS011;9168;51.194;6.840;2023-05-02T02:44:19;60.17;;;32.17;;
18082;SDS011;9168;51.194;6.840;2023-05-02T02:46:55;57.05;;;31.08;;
18082;SDS011;9168;51.194;6.840;2023-05-02T02:49:30;56.53;;;32.08;;
18082;SDS011;9168;51.194;6.840;2023-05-02T02:52:02;50.67;;;29.95;;
18082;SDS011;9168;51.194;6.840;2023-05-02T02:54:38;56.05;;;32.30;;
18082;SDS011;9168;51.194;6.840;2023-05-02T02:57:15;55.97;;;31.13;;
18082;SDS011;9168;51.194;6.840;2023-05-02T02:59:50;56.92;;;32.40;;
18082;SDS011;9168;51.194;6.840;2023-05-02T03:02:25;56.90;;;30.35;;
18082;SDS011;9168;51.194;6.840;2023-05-02T03:04:57;57.72;;;32.30;;
18082;SDS011;9168;51.194;6.840;2023-05-02T03:07:26;59.20;;;32.30;;
18082;SDS011;9168;51.194;6.840;2023-05-02T03:09:53;51.75;;;29.67;;
18082;SDS011;9168;51.194;6.840;2023-05-02T03:12:20;57.97;;;31.13;;
18082;SDS011;9168;51.194;6.840;2023-05-02T03:14:47;53.78;;;30.70;;
18082;SDS011;9168;51.194;6.840;2023-05-02T03:17:14;55.28;;;30.58;;
18082;SDS011;9168;51.194;6.840;2023-05-02T03:19:41;53.15;;;29.67;;
18082;SDS011;9168;51.194;6.840;2023-05-02T03:22:09;53.50;;;29.65;;
18082;SDS011;9168;51.194;6.840;2023-05-02T03:24:36;54.78;;;29.08;;
18082;SDS011;9168;51.194;6.840;2023-05-02T03:27:03;50.70;;;28.73;;
18082;SDS011;9168;51.194;6.840;2023-05-02T03:29:30;52.15;;;28.67;;
18082;SDS011;9168;51.194;6.840;2023-05-02T03:31:57;56.05;;;30.27;;
18082;SDS011;9168;51.194;6.840;2023-05-02T03:34:24;56.05;;;29.15;;
18082;SDS011;9168;51.194;6.840;2023-05-02T03:36:50;53.15;;;29.80;;
18082;SDS011;9168;51.194;6.840;2023-05-02T03:39:19;49.97;;;29.33;;
18082;SDS011;9168;51.194;6.840;2023-05-02T03:41:46;48.22;;;27.30;;
18082;SDS011;9168;51.194;6.840;2023-05-02T03:44:13;52.33;;;27.83;;
18082;SDS011;9168;51.194;6.840;2023-05-02T03:46:39;52.03;;;27.30;;
18082;SDS011;9168;51.194;6.840;2023-05-02T03:49:07;49.65;;;26.85;;
18082;SDS011;9168;51.194;6.840;2023-05-02T03:51:33;44.22;;;24.15;;
18082;SDS011;9168;51.194;6.840;2023-05-02T03:54:00;40.58;;;23.40;;
18082;SDS011;9168;51.194;6.840;2023-05-02T03:56:29;38.15;;;21.52;;
18082;SDS011;9168;51.194;6.840;2023-05-02T03:58:55;43.13;;;22.00;;
18082;SDS011;9168;51.194;6.840;2023-05-02T04:01:23;42.58;;;22.05;;
18082;SDS011;9168;51.194;6.840;2023-05-02T04:03:50;44.50;;;23.17;;
18082;SDS011;9168;51.194;6.840;2023-05-02T04:06:17;41.05;;;22.83;;
18082;SDS011;9168;51.194;6.840;2023-05-02T04:08:44;42.35;;;22.38;;
18082;SDS011;9168;51.194;6.840;2023-05-02T04:11:11;40.70;;;22.17;;
18082;SDS011;9168;51.194;6.840;2023-05-02T04:13:39;42.20;;;22.08;;
18082;SDS011;9168;51.194;6.840;2023-05-02T04:16:07;39.33;;;20.92;;
18082;SDS011;9168;51.194;6.840;2023-05-02T04:18:34;38.53;;;20.60;;
18082;SDS011;9168;51.194;6.840;2023-05-02T04:21:01;36.28;;;19.23;;
18082;SDS011;9168;51.194;6.840;2023-05-02T04:23:28;38.60;;;19.40;;
18082;SDS011;9168;51.194;6.840;2023-05-02T04:25:54;39.53;;;18.70;;
18082;SDS011;9168;51.194;6.840;2023-05-02T04:28:21;31.17;;;17.63;;
18082;SDS011;9168;51.194;6.840;2023-05-02T04:30:50;38.08;;;19.58;;
18082;SDS011;9168;51.194;6.840;2023-05-02T04:33:17;30.48;;;17.60;;
18082;SDS011;9168;51.194;6.840;2023-05-02T04:35:44;36.65;;;19.40;;
18082;SDS011;9168;51.194;6.840;2023-05-02T04:38:11;33.88;;;18.08;;
18082;SDS011;9168;51.194;6.840;2023-05-02T04:40:38;33.83;;;17.30;;
18082;SDS011;9168;51.194;6.840;2023-05-02T04:43:05;35.35;;;18.38;;
18082;SDS011;9168;51.194;6.840;2023-05-02T04:45:33;34.88;;;17.90;;
18082;SDS011;9168;51.194;6.840;2023-05-02T04:48:02;34.00;;;18.20;;
18082;SDS011;9168;51.194;6.840;2023-05-02T04:50:29;37.03;;;18.77;;
18082;SDS011;9168;51.194;6.840;2023-05-02T04:52:56;37.03;;;19.17;;
18082;SDS011;9168;51.194;6.840;2023-05-02T04:55:23;32.47;;;18.05;;
18082;SDS011;9168;51.194;6.840;2023-05-02T04:57:50;34.42;;;18.48;;
18082;SDS011;9168;51.194;6.840;2023-05-02T05:00:17;39.55;;;19.23;;
18082;SDS011;9168;51.194;6.840;2023-05-02T05:02:43;40.15;;;20.60;;
18082;SDS011;9168;51.194;6.840;2023-05-02T05:05:12;37.22;;;20.75;;
18082;SDS011;9168;51.194;6.840;2023-05-02T05:07:39;35.03;;;19.30;;
18082;SDS011;9168;51.194;6.840;2023-05-02T05:10:09;39.85;;;20.17;;
18082;SDS011;9168;51.194;6.840;2023-05-02T05:12:36;37.70;;;20.98;;
18082;SDS011;9168;51.194;6.840;2023-05-02T05:15:03;46.10;;;20.83;;
18082;SDS011;9168;51.194;6.840;2023-05-02T05:17:30;39.47;;;21.25;;
18082;SDS011;9168;51.194;6.840;2023-05-02T05:19:57;49.55;;;24.48;;
18082;SDS011;9168;51.194;6.840;2023-05-02T05:22:26;44.08;;;22.05;;
18082;SDS011;9168;51.194;6.840;2023-05-02T05:24:52;45.05;;;23.02;;
18082;SDS011;9168;51.194;6.840;2023-05-02T05:27:20;42.35;;;22.58;;
18082;SDS011;9168;51.194;6.840;2023-05-02T05:29:47;48.20;;;24.02;;
18082;SDS011;9168;51.194;6.840;2023-05-02T05:32:14;41.42;;;22.20;;
18082;SDS011;9168;51.194;6.840;2023-05-02T05:34:40;44.53;;;22.13;;
18082;SDS011;9168;51.194;6.840;2023-05-02T05:37:07;46.38;;;23.20;;
18082;SDS011;9168;51.194;6.840;2023-05-02T05:39:36;39.00;;;20.13;;
18082;SDS011;9168;51.194;6.840;2023-05-02T05:42:02;40.70;;;21.35;;
18082;SDS011;9168;51.194;6.840;2023-05-02T05:44:30;44.55;;;21.73;;
18082;SDS011;9168;51.194;6.840;2023-05-02T05:46:56;51.30;;;23.58;;
18082;SDS011;9168;51.194;6.840;2023-05-02T05:49:23;39.97;;;22.27;;
18082;SDS011;9168;51.194;6.840;2023-05-02T05:51:50;43.80;;;22.17;;
18082;SDS011;9168;51.194;6.840;2023-05-02T05:54:17;44.85;;;22.38;;
18082;SDS011;9168;51.194;6.840;2023-05-02T05:56:45;39.08;;;21.25;;
18082;SDS011;9168;51.194;6.840;2023-05-02T05:59:12;39.92;;;22.23;;
18082;SDS011;9168;51.194;6.840;2023-05-02T06:01:39;32.72;;;17.77;;
18082;SDS011;9168;51.194;6.840;2023-05-02T06:04:06;29.05;;;15.02;;
18082;SDS011;9168;51.194;6.840;2023-05-02T06:06:33;26.30;;;13.75;;
18082;SDS011;9168;51.194;6.840;2023-05-02T06:09:00;29.98;;;14.48;;
18082;SDS011;9168;51.194;6.840;2023-05-02T06:11:28;26.88;;;13.60;;
18082;SDS011;9168;51.194;6.840;2023-05-02T06:13:56;27.55;;;13.15;;
18082;SDS011;9168;51.194;6.840;2023-05-02T06:16:23;18.63;;;11.68;;
18082;SDS011;9168;51.194;6.840;2023-05-02T06:18:50;19.73;;;11.13;;
18082;SDS011;9168;51.194;6.840;2023-05-02T06:21:17;19.88;;;10.20;;
18082;SDS011;9168;51.194;6.840;2023-05-02T06:23:44;20.40;;;10.27;;
18082;SDS011;9168;51.194;6.840;2023-05-02T06:26:11;18.13;;;10.88;;
18082;SDS011;9168;51.194;6.840;2023-05-02T06:28:38;22.95;;;12.05;;
18082;SDS011;9168;51.194;6.840;2023-05-02T06:31:06;21.73;;;11.63;;
18082;SDS011;9168;51.194;6.840;2023-05-02T06:33:33;23.20;;;11.43;;
18082;SDS011;9168;51.194;6.840;2023-05-02T06:36:00;26.40;;;13.05;;
18082;SDS011;9168;51.194;6.840;2023-05-02T06:38:28;27.75;;;14.05;;
18082;SDS011;9168;51.194;6.840;2023-05-02T06:40:55;23.55;;;11.50;;
18082;SDS011;9168;51.194;6.840;2023-05-02T06:43:22;24.20;;;11.15;;
18082;SDS011;9168;51.194;6.840;2023-05-02T06:45:51;20.15;;;10.45;;
18082;SDS011;9168;51.194;6.840;2023-05-02T06:48:19;28.67;;;10.52;;
18082;SDS011;9168;51.194;6.840;2023-05-02T06:50:46;22.08;;;9.43;;
18082;SDS011;9168;51.194;6.840;2023-05-02T06:53:13;16.60;;;7.63;;
18082;SDS011;9168;51.194;6.840;2023-05-02T06:55:40;15.45;;;7.00;;
18082;SDS011;9168;51.194;6.840;2023-05-02T06:58:07;16.70;;;5.60;;
18082;SDS011;9168;51.194;6.840;2023-05-02T07:00:34;15.57;;;5.07;;
18082;SDS011;9168;51.194;6.840;2023-05-02T07:03:01;12.95;;;4.18;;
18082;SDS011;9168;51.194;6.840;2023-05-02T07:05:29;14.10;;;4.65;;
18082;SDS011;9168;51.194;6.840;2023-05-02T07:07:56;15.60;;;4.32;;
18082;SDS011;9168;51.194;6.840;2023-05-02T07:10:23;13.50;;;4.50;;
18082;SDS011;9168;51.194;6.840;2023-05-02T07:12:50;14.35;;;3.97;;
18082;SDS011;9168;51.194;6.840;2023-05-02T07:15:17;18.23;;;4.75;;
18082;SDS011;9168;51.194;6.840;2023-05-02T07:17:44;13.80;;;4.30;;
18082;SDS011;9168;51.194;6.840;2023-05-02T07:20:11;14.50;;;4.57;;
18082;SDS011;9168;51.194;6.840;2023-05-02T07:22:41;15.07;;;5.35;;
18082;SDS011;9168;51.194;6.840;2023-05-02T07:25:08;15.93;;;5.15;;
18082;SDS011;9168;51.194;6.840;2023-05-02T07:27:35;20.52;;;8.07;;
18082;SDS011;9168;51.194;6.840;2023-05-02T07:30:02;17.45;;;8.10;;
18082;SDS011;9168;51.194;6.840;2023-05-02T07:32:29;20.55;;;7.60;;
18082;SDS011;9168;51.194;6.840;2023-05-02T07:34:56;21.05;;;8.32;;
18082;SDS011;9168;51.194;6.840;2023-05-02T07:37:23;22.08;;;7.75;;
18082;SDS011;9168;51.194;6.840;2023-05-02T07:39:51;21.40;;;8.48;;
18082;SDS011;9168;51.194;6.840;2023-05-02T07:42:18;13.73;;;7.05;;
18082;SDS011;9168;51.194;6.840;2023-05-02T07:44:45;23.15;;;7.25;;
18082;SDS011;9168;51.194;6.840;2023-05-02T07:47:12;16.90;;;6.50;;
18082;SDS011;9168;51.194;6.840;2023-05-02T07:49:39;21.77;;;7.35;;
18082;SDS011;9168;51.194;6.840;2023-05-02T07:52:05;23.95;;;9.98;;
18082;SDS011;9168;51.194;6.840;2023-05-02T07:54:32;28.23;;;11.90;;
18082;SDS011;9168;51.194;6.840;2023-05-02T07:57:01;23.02;;;10.40;;
18082;SDS011;9168;51.194;6.840;2023-05-02T07:59:29;17.35;;;8.20;;
18082;SDS011;9168;51.194;6.840;2023-05-02T08:01:56;17.25;;;6.93;;
18082;SDS011;9168;51.194;6.840;2023-05-02T08:04:23;12.20;;;6.20;;
18082;SDS011;9168;51.194;6.840;2023-05-02T08:06:50;14.80;;;6.45;;
18082;SDS011;9168;51.194;6.840;2023-05-02T08:09:17;14.30;;;6.80;;
18082;SDS011;9168;51.194;6.840;2023-05-02T08:11:44;16.92;;;6.25;;
18082;SDS011;9168;51.194;6.840;2023-05-02T08:14:12;13.88;;;6.35;;
18082;SDS011;9168;51.194;6.840;2023-05-02T08:16:40;18.23;;;6.13;;
18082;SDS011;9168;51.194;6.840;2023-05-02T08:19:06;17.23;;;4.82;;
18082;SDS011;9168;51.194;6.840;2023-05-02T08:21:33;15.45;;;4.78;;
18082;SDS011;9168;51.194;6.840;2023-05-02T08:24:00;20.23;;;4.80;;
18082;SDS011;9168;51.194;6.840;2023-05-02T08:26:27;14.95;;;4.75;;
18082;SDS011;9168;51.194;6.840;2023-05-02T08:28:54;13.30;;;5.03;;
18082;SDS011;9168;51.194;6.840;2023-05-02T08:31:22;15.20;;;4.85;;
18082;SDS011;9168;51.194;6.840;2023-05-02T08:33:49;13.55;;;4.68;;
18082;SDS011;9168;51.194;6.840;2023-05-02T08:36:16;14.57;;;4.47;;
18082;SDS011;9168;51.194;6.840;2023-05-02T08:38:44;15.20;;;4.53;;
18082;SDS011;9168;51.194;6.840;2023-05-02T08:41:12;12.93;;;4.90;;
18082;SDS011;9168;51.194;6.840;2023-05-02T08:43:40;18.48;;;5.57;;
18082;SDS011;9168;51.194;6.840;2023-05-02T08:46:08;13.95;;;5.28;;
18082;SDS011;9168;51.194;6.840;2023-05-02T08:48:38;12.27;;;5.07;;
18082;SDS011;9168;51.194;6.840;2023-05-02T08:51:07;18.48;;;5.03;;
18082;SDS011;9168;51.194;6.840;2023-05-02T08:53:35;17.98;;;5.20;;
18082;SDS011;9168;51.194;6.840;2023-05-02T08:56:03;15.98;;;5.15;;
18082;SDS011;9168;51.194;6.840;2023-05-02T08:58:31;13.35;;;4.60;;
18082;SDS011;9168;51.194;6.840;2023-05-02T09:00:59;9.80;;;3.88;;
18082;SDS011;9168;51.194;6.840;2023-05-02T09:03:28;15.20;;;4.47;;
18082;SDS011;9168;51.194;6.840;2023-05-02T09:06:01;12.95;;;3.85;;
18082;SDS011;9168;51.194;6.840;2023-05-02T09:08:31;13.15;;;3.85;;
18082;SDS011;9168;51.194;6.840;2023-05-02T09:10:58;17.77;;;4.63;;
18082;SDS011;9168;51.194;6.840;2023-05-02T09:13:28;10.85;;;3.60;;
18082;SDS011;9168;51.194;6.840;2023-05-02T09:15:57;13.77;;;3.95;;
18082;SDS011;9168;51.194;6.840;2023-05-02T09:18:26;15.75;;;4.03;;
18082;SDS011;9168;51.194;6.840;2023-05-02T09:20:54;13.48;;;4.32;;
18082;SDS011;9168;51.194;6.840;2023-05-02T09:23:24;20.25;;;4.18;;
18082;SDS011;9168;51.194;6.840;2023-05-02T09:25:58;14.98;;;4.55;;
18082;SDS011;9168;51.194;6.840;2023-05-02T09:28:36;11.23;;;3.80;;
18082;SDS011;9168;51.194;6.840;2023-05-02T09:31:05;13.95;;;3.65;;
18082;SDS011;9168;51.194;6.840;2023-05-02T09:33:33;14.75;;;4.47;;
18082;SDS011;9168;51.194;6.840;2023-05-02T09:36:00;12.20;;;3.83;;
18082;SDS011;9168;51.194;6.840;2023-05-02T09:38:29;11.10;;;3.17;;
18082;SDS011;9168;51.194;6.840;2023-05-02T09:40:56;10.40;;;3.10;;
18082;SDS011;9168;51.194;6.840;2023-05-02T09:43:23;10.23;;;3.33;;
18082;SDS011;9168;51.194;6.840;2023-05-02T09:45:56;10.40;;;3.60;;
18082;SDS011;9168;51.194;6.840;2023-05-02T09:48:23;9.18;;;2.22;;
18082;SDS011;9168;51.194;6.840;2023-05-02T09:50:51;12.73;;;3.03;;
18082;SDS011;9168;51.194;6.840;2023-05-02T09:53:18;7.03;;;2.50;;
18082;SDS011;9168;51.194;6.840;2023-05-02T09:55:47;8.43;;;2.95;;
18082;SDS011;9168;51.194;6.840;2023-05-02T09:58:20;11.30;;;3.08;;
18082;SDS011;9168;51.194;6.840;2023-05-02T10:00:48;8.57;;;2.88;;
18082;SDS011;9168;51.194;6.840;2023-05-02T10:03:16;8.52;;;2.60;;
18082;SDS011;9168;51.194;6.840;2023-05-02T10:05:44;8.77;;;2.80;;
18082;SDS011;9168;51.194;6.840;2023-05-02T10:08:12;8.10;;;2.90;;
18082;SDS011;9168;51.194;6.840;2023-05-02T10:10:39;11.57;;;3.00;;
18082;SDS011;9168;51.194;6.840;2023-05-02T10:13:11;9.48;;;2.78;;
18082;SDS011;9168;51.194;6.840;2023-05-02T10:15:41;7.47;;;2.67;;
18082;SDS011;9168;51.194;6.840;2023-05-02T10:18:11;11.70;;;2.60;;
18082;SDS011;9168;51.194;6.840;2023-05-02T10:20:41;13.07;;;3.30;;
18082;SDS011;9168;51.194;6.840;2023-05-02T10:23:13;12.63;;;3.42;;
18082;SDS011;9168;51.194;6.840;2023-05-02T10:25:41;15.68;;;4.78;;
18082;SDS011;9168;51.194;6.840;2023-05-02T10:28:08;11.45;;;4.28;;
18082;SDS011;9168;51.194;6.840;2023-05-02T10:30:38;15.30;;;5.60;;
18082;SDS011;9168;51.194;6.840;2023-05-02T10:33:05;11.38;;;4.03;;
18082;SDS011;9168;51.194;6.840;2023-05-02T10:35:32;14.98;;;4.35;;
18082;SDS011;9168;51.194;6.840;2023-05-02T10:38:01;16.20;;;4.32;;
18082;SDS011;9168;51.194;6.840;2023-05-02T10:40:30;21.58;;;4.75;;
18082;SDS011;9168;51.194;6.840;2023-05-02T10:42:57;16.00;;;3.53;;
18082;SDS011;9168;51.194;6.840;2023-05-02T10:45:35;13.93;;;4.18;;
18082;SDS011;9168;51.194;6.840;2023-05-02T10:48:11;13.73;;;3.58;;
18082;SDS011;9168;51.194;6.840;2023-05-02T10:50:43;12.43;;;3.45;;
18082;SDS011;9168;51.194;6.840;2023-05-02T10:53:25;13.77;;;3.58;;
18082;SDS011;9168;51.194;6.840;2023-05-02T10:58:51;10.10;;;3.42;;
18082;SDS011;9168;51.194;6.840;2023-05-02T11:01:35;10.90;;;3.35;;
18082;SDS011;9168;51.194;6.840;2023-05-02T11:04:09;13.30;;;4.13;;
18082;SDS011;9168;51.194;6.840;2023-05-02T11:09:43;14.18;;;3.90;;
18082;SDS011;9168;51.194;6.840;2023-05-02T11:12:10;15.30;;;4.18;;
18082;SDS011;9168;51.194;6.840;2023-05-02T11:14:57;16.73;;;4.15;;
18082;SDS011;9168;51.194;6.840;2023-05-02T11:17:25;15.90;;;3.90;;
18082;SDS011;9168;51.194;6.840;2023-05-02T11:22:50;11.85;;;3.17;;
18082;SDS011;9168;51.194;6.840;2023-05-02T11:25:32;10.75;;;4.13;;
18082;SDS011;9168;51.194;6.840;2023-05-02T11:28:04;12.80;;;3.83;;
18082;SDS011;9168;51.194;6.840;2023-05-02T11:30:37;13.68;;;4.95;;
18082;SDS011;9168;51.194;6.840;2023-05-02T11:33:13;14.45;;;4.65;;
18082;SDS011;9168;51.194;6.840;2023-05-02T11:35:42;19.33;;;3.97;;
18082;SDS011;9168;51.194;6.840;2023-05-02T11:38:11;12.80;;;4.00;;
18082;SDS011;9168;51.194;6.840;2023-05-02T11:40:39;18.15;;;4.40;;
18082;SDS011;9168;51.194;6.840;2023-05-02T11:43:14;13.60;;;3.55;;
18082;SDS011;9168;51.194;6.840;2023-05-02T11:45:42;11.43;;;3.88;;
18082;SDS011;9168;51.194;6.840;2023-05-02T11:48:10;13.52;;;3.45;;
18082;SDS011;9168;51.194;6.840;2023-05-02T11:50:41;15.93;;;3.72;;
18082;SDS011;9168;51.194;6.840;2023-05-02T11:53:09;17.05;;;4.22;;
18082;SDS011;9168;51.194;6.840;2023-05-02T11:55:42;12.23;;;3.85;;
18082;SDS011;9168;51.194;6.840;2023-05-02T11:58:14;18.45;;;4.35;;
18082;SDS011;9168;51.194;6.840;2023-05-02T12:00:42;15.95;;;4.70;;
18082;SDS011;9168;51.194;6.840;2023-05-02T12:03:19;13.52;;;4.22;;
18082;SDS011;9168;51.194;6.840;2023-05-02T12:05:51;11.30;;;4.13;;
18082;SDS011;9168;51.194;6.840;2023-05-02T12:08:19;16.52;;;4.75;;
18082;SDS011;9168;51.194;6.840;2023-05-02T12:10:48;9.57;;;4.07;;
18082;SDS011;9168;51.194;6.840;2023-05-02T12:13:17;15.15;;;4.55;;
18082;SDS011;9168;51.194;6.840;2023-05-02T12:15:44;15.25;;;5.13;;
18082;SDS011;9168;51.194;6.840;2023-05-02T12:18:11;20.63;;;4.97;;
18082;SDS011;9168;51.194;6.840;2023-05-02T12:20:40;17.52;;;4.75;;
18082;SDS011;9168;51.194;6.840;2023-05-02T12:23:08;17.40;;;4.82;;
18082;SDS011;9168;51.194;6.840;2023-05-02T12:25:36;14.45;;;3.90;;
18082;SDS011;9168;51.194;6.840;2023-05-02T12:28:04;15.70;;;4.50;;
18082;SDS011;9168;51.194;6.840;2023-05-02T12:30:32;11.77;;;4.20;;
18082;SDS011;9168;51.194;6.840;2023-05-02T12:33:02;16.95;;;3.97;;
18082;SDS011;9168;51.194;6.840;2023-05-02T12:35:30;20.20;;;4.32;;
18082;SDS011;9168;51.194;6.840;2023-05-02T12:38:10;18.17;;;4.63;;
18082;SDS011;9168;51.194;6.840;2023-05-02T12:40:44;15.43;;;3.35;;
18082;SDS011;9168;51.194;6.840;2023-05-02T12:43:13;17.42;;;4.63;;
18082;SDS011;9168;51.194;6.840;2023-05-02T12:45:39;11.60;;;3.83;;
18082;SDS011;9168;51.194;6.840;2023-05-02T12:48:20;13.48;;;3.90;;
18082;SDS011;9168;51.194;6.840;2023-05-02T12:50:49;15.05;;;4.22;;
18082;SDS011;9168;51.194;6.840;2023-05-02T12:53:17;13.70;;;4.30;;
18082;SDS011;9168;51.194;6.840;2023-05-02T12:56:04;11.77;;;3.78;;
18082;SDS011;9168;51.194;6.840;2023-05-02T12:58:38;15.90;;;4.50;;
18082;SDS011;9168;51.194;6.840;2023-05-02T13:01:07;13.77;;;4.22;;
18082;SDS011;9168;51.194;6.840;2023-05-02T13:03:34;16.45;;;5.13;;
18082;SDS011;9168;51.194;6.840;2023-05-02T13:06:02;16.52;;;5.53;;
18082;SDS011;9168;51.194;6.840;2023-05-02T13:08:30;12.02;;;4.28;;
18082;SDS011;9168;51.194;6.840;2023-05-02T13:10:58;16.80;;;4.50;;
18082;SDS011;9168;51.194;6.840;2023-05-02T13:13:25;13.30;;;4.40;;
18082;SDS011;9168;51.194;6.840;2023-05-02T13:15:52;16.40;;;4.50;;
18082;SDS011;9168;51.194;6.840;2023-05-02T13:18:18;12.48;;;4.25;;
18082;SDS011;9168;51.194;6.840;2023-05-02T13:20:45;18.92;;;5.40;;
18082;SDS011;9168;51.194;6.840;2023-05-02T13:23:12;13.63;;;4.63;;
18082;SDS011;9168;51.194;6.840;2023-05-02T13:25:42;11.45;;;4.47;;
18082;SDS011;9168;51.194;6.840;2023-05-02T13:28:09;14.45;;;3.88;;
18082;SDS011;9168;51.194;6.840;2023-05-02T13:30:35;15.40;;;4.38;;
18082;SDS011;9168;51.194;6.840;2023-05-02T13:33:02;12.10;;;4.22;;
18082;SDS011;9168;51.194;6.840;2023-05-02T13:35:29;16.55;;;4.00;;
18082;SDS011;9168;51.194;6.840;2023-05-02T13:37:56;11.93;;;3.95;;
18082;SDS011;9168;51.194;6.840;2023-05-02T13:40:23;9.98;;;3.70;;
18082;SDS011;9168;51.194;6.840;2023-05-02T13:42:51;11.00;;;3.75;;
18082;SDS011;9168;51.194;6.840;2023-05-02T13:45:21;10.27;;;3.83;;
18082;SDS011;9168;51.194;6.840;2023-05-02T13:47:48;17.65;;;3.75;;
18082;SDS011;9168;51.194;6.840;2023-05-02T13:50:15;12.27;;;3.90;;
18082;SDS011;9168;51.194;6.840;2023-05-02T13:52:42;11.35;;;3.45;;
18082;SDS011;9168;51.194;6.840;2023-05-02T13:55:09;8.27;;;3.78;;
18082;SDS011;9168;51.194;6.840;2023-05-02T13:57:36;13.20;;;3.78;;
18082;SDS011;9168;51.194;6.840;2023-05-02T14:00:14;11.20;;;3.42;;
18082;SDS011;9168;51.194;6.840;2023-05-02T14:02:41;13.27;;;3.08;;
18082;SDS011;9168;51.194;6.840;2023-05-02T14:05:10;10.27;;;3.00;;
18082;SDS011;9168;51.194;6.840;2023-05-02T14:07:37;8.02;;;2.92;;
18082;SDS011;9168;51.194;6.840;2023-05-02T14:10:05;9.05;;;3.08;;
18082;SDS011;9168;51.194;6.840;2023-05-02T14:12:32;10.95;;;2.95;;
18082;SDS011;9168;51.194;6.840;2023-05-02T14:14:59;11.75;;;3.72;;
18082;SDS011;9168;51.194;6.840;2023-05-02T14:17:27;11.45;;;3.42;;
18082;SDS011;9168;51.194;6.840;2023-05-02T14:19:55;11.35;;;3.67;;
18082;SDS011;9168;51.194;6.840;2023-05-02T14:22:22;15.48;;;3.70;;
18082;SDS011;9168;51.194;6.840;2023-05-02T14:24:49;9.82;;;3.03;;
18082;SDS011;9168;51.194;6.840;2023-05-02T14:27:16;8.32;;;3.45;;
18082;SDS011;9168;51.194;6.840;2023-05-02T14:29:43;11.88;;;3.40;;
18082;SDS011;9168;51.194;6.840;2023-05-02T14:32:10;9.35;;;3.40;;
18082;SDS011;9168;51.194;6.840;2023-05-02T14:34:39;8.68;;;3.40;;
18082;SDS011;9168;51.194;6.840;2023-05-02T14:37:06;9.63;;;3.28;;
18082;SDS011;9168;51.194;6.840;2023-05-02T14:39:34;12.77;;;4.00;;
18082;SDS011;9168;51.194;6.840;2023-05-02T14:42:01;10.23;;;3.20;;
18082;SDS011;9168;51.194;6.840;2023-05-02T14:44:28;12.07;;;3.40;;
18082;SDS011;9168;51.194;6.840;2023-05-02T14:46:55;7.45;;;2.90;;
18082;SDS011;9168;51.194;6.840;2023-05-02T14:49:22;10.05;;;3.92;;
18082;SDS011;9168;51.194;6.840;2023-05-02T14:51:50;9.85;;;3.03;;
18082;SDS011;9168;51.194;6.840;2023-05-02T14:54:17;18.75;;;3.45;;
18082;SDS011;9168;51.194;6.840;2023-05-02T14:56:44;14.25;;;3.38;;
18082;SDS011;9168;51.194;6.840;2023-05-02T14:59:12;12.07;;;3.42;;
18082;SDS011;9168;51.194;6.840;2023-05-02T15:01:39;10.13;;;3.30;;